sensor_id;sensor_type;location;lat;lon;timestamp;temperature;humidity
67817;DHT22;54614;47.576;7.524;2022-11-09T00:00:48;24.90;53.60
67817;DHT22;54614;47.576;7.524;2022-11-09T00:03:14;24.90;53.70
67817;DHT22;54614;47.576;7.524;2022-11-09T00:05:40;24.90;53.60
67817;DHT22;54614;47.576;7.524;2022-11-09T00:08:08;24.90;53.60
67817;DHT22;54614;47.576;7.524;2022-11-09T00:10:35;24.90;53.60
67817;DHT22;54614;47.576;7.524;2022-11-09T00:13:01;24.90;53.60
67817;DHT22;54614;47.576;7.524;2022-11-09T00:15:27;24.90;53.70
67817;DHT22;54614;47.576;7.524;2022-11-09T00:17:53;24.90;53.60
67817;DHT22;54614;47.576;7.524;2022-11-09T00:20:19;24.90;53.60
67817;DHT22;54614;47.576;7.524;2022-11-09T00:22:48;24.90;53.40
67817;DHT22;54614;47.576;7.524;2022-11-09T00:25:15;24.90;53.60
67817;DHT22;54614;47.576;7.524;2022-11-09T00:27:41;25.00;53.60
67817;DHT22;54614;47.576;7.524;2022-11-09T00:30:07;24.90;53.50
67817;DHT22;54614;47.576;7.524;2022-11-09T00:32:35;24.90;53.60
67817;DHT22;54614;47.576;7.524;2022-11-09T00:35:01;24.80;53.70
67817;DHT22;54614;47.576;7.524;2022-11-09T00:37:30;24.80;53.70
67817;DHT22;54614;47.576;7.524;2022-11-09T00:39:56;24.90;53.80
67817;DHT22;54614;47.576;7.524;2022-11-09T00:42:22;24.80;53.60
67817;DHT22;54614;47.576;7.524;2022-11-09T00:44:48;24.90;53.50
67817;DHT22;54614;47.576;7.524;2022-11-09T00:47:14;24.90;53.50
67817;DHT22;54614;47.576;7.524;2022-11-09T00:49:39;24.90;53.50
67817;DHT22;54614;47.576;7.524;2022-11-09T00:52:05;24.90;53.60
67817;DHT22;54614;47.576;7.524;2022-11-09T00:54:31;24.90;53.50
67817;DHT22;54614;47.576;7.524;2022-11-09T00:56:57;24.90;53.50
67817;DHT22;54614;47.576;7.524;2022-11-09T00:59:23;24.90;53.50
67817;DHT22;54614;47.576;7.524;2022-11-09T01:01:49;24.80;53.50
67817;DHT22;54614;47.576;7.524;2022-11-09T01:04:15;24.90;53.60
67817;DHT22;54614;47.576;7.524;2022-11-09T01:06:40;24.90;53.70
67817;DHT22;54614;47.576;7.524;2022-11-09T01:09:06;24.80;53.70
67817;DHT22;54614;47.576;7.524;2022-11-09T01:11:32;24.80;53.70
67817;DHT22;54614;47.576;7.524;2022-11-09T01:13:59;24.80;53.80
67817;DHT22;54614;47.576;7.524;2022-11-09T01:16:25;24.80;53.80
67817;DHT22;54614;47.576;7.524;2022-11-09T01:18:55;24.80;53.80
67817;DHT22;54614;47.576;7.524;2022-11-09T01:21:22;24.80;53.70
67817;DHT22;54614;47.576;7.524;2022-11-09T01:23:48;24.80;53.70
67817;DHT22;54614;47.576;7.524;2022-11-09T01:26:14;24.80;53.70
67817;DHT22;54614;47.576;7.524;2022-11-09T01:28:41;24.90;53.70
67817;DHT22;54614;47.576;7.524;2022-11-09T01:31:13;24.80;53.70
67817;DHT22;54614;47.576;7.524;2022-11-09T01:33:41;24.80;53.80
67817;DHT22;54614;47.576;7.524;2022-11-09T01:36:13;24.80;53.80
67817;DHT22;54614;47.576;7.524;2022-11-09T01:38:41;24.80;53.90
67817;DHT22;54614;47.576;7.524;2022-11-09T01:41:12;24.80;53.80
67817;DHT22;54614;47.576;7.524;2022-11-09T01:44:08;24.90;53.80
67817;DHT22;54614;47.576;7.524;2022-11-09T01:47:00;24.90;53.60
67817;DHT22;54614;47.576;7.524;2022-11-09T01:52:21;24.80;53.70
67817;DHT22;54614;47.576;7.524;2022-11-09T01:54:54;24.80;53.70
67817;DHT22;54614;47.576;7.524;2022-11-09T01:57:40;24.80;53.80
67817;DHT22;54614;47.576;7.524;2022-11-09T02:00:14;24.80;53.70
67817;DHT22;54614;47.576;7.524;2022-11-09T02:02:53;24.80;53.70
67817;DHT22;54614;47.576;7.524;2022-11-09T02:05:25;24.80;53.80
67817;DHT22;54614;47.576;7.524;2022-11-09T02:07:54;24.80;53.80
67817;DHT22;54614;47.576;7.524;2022-11-09T02:10:35;24.80;53.80
67817;DHT22;54614;47.576;7.524;2022-11-09T02:13:25;24.80;53.80
67817;DHT22;54614;47.576;7.524;2022-11-09T02:15:54;24.80;54.00
67817;DHT22;54614;47.576;7.524;2022-11-09T02:18:20;24.80;54.00
67817;DHT22;54614;47.576;7.524;2022-11-09T02:20:49;24.80;54.00
67817;DHT22;54614;47.576;7.524;2022-11-09T02:23:17;24.80;54.00
67817;DHT22;54614;47.576;7.524;2022-11-09T02:25:48;24.80;54.00
67817;DHT22;54614;47.576;7.524;2022-11-09T02:28:21;24.70;54.00
67817;DHT22;54614;47.576;7.524;2022-11-09T02:30:52;24.80;54.00
67817;DHT22;54614;47.576;7.524;2022-11-09T02:33:20;24.80;53.90
67817;DHT22;54614;47.576;7.524;2022-11-09T02:35:46;24.80;53.90
67817;DHT22;54614;47.576;7.524;2022-11-09T02:38:13;24.80;53.80
67817;DHT22;54614;47.576;7.524;2022-11-09T02:40:43;24.80;53.80
67817;DHT22;54614;47.576;7.524;2022-11-09T02:43:14;24.80;53.80
67817;DHT22;54614;47.576;7.524;2022-11-09T02:45:41;24.80;53.80
67817;DHT22;54614;47.576;7.524;2022-11-09T02:48:07;24.80;53.90
67817;DHT22;54614;47.576;7.524;2022-11-09T02:50:33;24.80;53.90
67817;DHT22;54614;47.576;7.524;2022-11-09T02:53:00;24.80;53.90
67817;DHT22;54614;47.576;7.524;2022-11-09T02:55:26;24.80;53.80
67817;DHT22;54614;47.576;7.524;2022-11-09T02:57:52;24.80;53.80
67817;DHT22;54614;47.576;7.524;2022-11-09T03:00:18;24.80;53.80
67817;DHT22;54614;47.576;7.524;2022-11-09T03:02:44;24.80;53.90
67817;DHT22;54614;47.576;7.524;2022-11-09T03:05:10;24.80;53.90
67817;DHT22;54614;47.576;7.524;2022-11-09T03:07:35;24.80;54.00
67817;DHT22;54614;47.576;7.524;2022-11-09T03:10:01;24.80;53.90
67817;DHT22;54614;47.576;7.524;2022-11-09T03:12:28;24.80;54.00
67817;DHT22;54614;47.576;7.524;2022-11-09T03:14:55;24.80;54.00
67817;DHT22;54614;47.576;7.524;2022-11-09T03:17:21;24.80;53.90
67817;DHT22;54614;47.576;7.524;2022-11-09T03:19:47;24.80;53.90
67817;DHT22;54614;47.576;7.524;2022-11-09T03:22:13;24.80;53.90
67817;DHT22;54614;47.576;7.524;2022-11-09T03:24:39;24.80;53.80
67817;DHT22;54614;47.576;7.524;2022-11-09T03:27:05;24.80;53.80
67817;DHT22;54614;47.576;7.524;2022-11-09T03:29:31;24.80;53.90
67817;DHT22;54614;47.576;7.524;2022-11-09T03:31:58;24.80;53.90
67817;DHT22;54614;47.576;7.524;2022-11-09T03:34:24;24.80;53.90
67817;DHT22;54614;47.576;7.524;2022-11-09T03:36:50;24.80;53.90
67817;DHT22;54614;47.576;7.524;2022-11-09T03:39:15;24.80;53.90
67817;DHT22;54614;47.576;7.524;2022-11-09T03:41:41;24.80;53.90
67817;DHT22;54614;47.576;7.524;2022-11-09T03:44:07;24.80;53.90
67817;DHT22;54614;47.576;7.524;2022-11-09T03:46:33;24.80;53.90
67817;DHT22;54614;47.576;7.524;2022-11-09T03:48:59;24.80;54.50
67817;DHT22;54614;47.576;7.524;2022-11-09T03:51:25;24.80;53.90
67817;DHT22;54614;47.576;7.524;2022-11-09T03:53:50;24.80;53.90
67817;DHT22;54614;47.576;7.524;2022-11-09T03:56:17;24.80;53.80
67817;DHT22;54614;47.576;7.524;2022-11-09T03:58:43;24.80;53.80
67817;DHT22;54614;47.576;7.524;2022-11-09T04:01:08;24.80;53.90
67817;DHT22;54614;47.576;7.524;2022-11-09T04:03:35;24.80;53.90
67817;DHT22;54614;47.576;7.524;2022-11-09T04:06:02;24.80;53.90
67817;DHT22;54614;47.576;7.524;2022-11-09T04:08:28;24.80;53.90
67817;DHT22;54614;47.576;7.524;2022-11-09T04:10:54;24.80;53.90
67817;DHT22;54614;47.576;7.524;2022-11-09T04:13:20;24.80;53.80
67817;DHT22;54614;47.576;7.524;2022-11-09T04:15:46;24.80;53.90
67817;DHT22;54614;47.576;7.524;2022-11-09T04:18:14;24.70;53.90
67817;DHT22;54614;47.576;7.524;2022-11-09T04:20:41;24.70;53.90
67817;DHT22;54614;47.576;7.524;2022-11-09T04:23:10;24.80;54.00
67817;DHT22;54614;47.576;7.524;2022-11-09T04:25:38;24.70;54.00
67817;DHT22;54614;47.576;7.524;2022-11-09T04:28:06;24.70;54.00
67817;DHT22;54614;47.576;7.524;2022-11-09T04:30:35;24.70;54.10
67817;DHT22;54614;47.576;7.524;2022-11-09T04:33:02;24.70;53.90
67817;DHT22;54614;47.576;7.524;2022-11-09T04:35:30;24.70;54.10
67817;DHT22;54614;47.576;7.524;2022-11-09T04:38:03;24.60;54.20
67817;DHT22;54614;47.576;7.524;2022-11-09T04:40:32;24.70;54.20
67817;DHT22;54614;47.576;7.524;2022-11-09T04:43:01;24.70;54.10
67817;DHT22;54614;47.576;7.524;2022-11-09T04:45:28;24.70;54.10
67817;DHT22;54614;47.576;7.524;2022-11-09T04:47:59;24.70;54.00
67817;DHT22;54614;47.576;7.524;2022-11-09T04:50:27;24.70;54.00
67817;DHT22;54614;47.576;7.524;2022-11-09T04:52:53;24.80;54.30
67817;DHT22;54614;47.576;7.524;2022-11-09T04:55:19;24.70;53.90
67817;DHT22;54614;47.576;7.524;2022-11-09T04:57:45;24.80;54.00
67817;DHT22;54614;47.576;7.524;2022-11-09T05:00:12;24.80;54.00
67817;DHT22;54614;47.576;7.524;2022-11-09T05:02:38;24.60;54.40
67817;DHT22;54614;47.576;7.524;2022-11-09T05:05:04;24.70;54.00
67817;DHT22;54614;47.576;7.524;2022-11-09T05:07:31;24.70;54.00
67817;DHT22;54614;47.576;7.524;2022-11-09T05:09:56;24.80;54.00
67817;DHT22;54614;47.576;7.524;2022-11-09T05:12:22;24.80;54.00
67817;DHT22;54614;47.576;7.524;2022-11-09T05:14:48;24.70;54.00
67817;DHT22;54614;47.576;7.524;2022-11-09T05:17:14;24.80;54.00
67817;DHT22;54614;47.576;7.524;2022-11-09T05:19:40;24.80;54.00
67817;DHT22;54614;47.576;7.524;2022-11-09T05:22:06;24.80;54.00
67817;DHT22;54614;47.576;7.524;2022-11-09T05:24:50;24.70;54.10
67817;DHT22;54614;47.576;7.524;2022-11-09T05:27:18;24.70;54.10
67817;DHT22;54614;47.576;7.524;2022-11-09T05:29:43;24.80;54.20
67817;DHT22;54614;47.576;7.524;2022-11-09T05:32:09;24.70;54.10
67817;DHT22;54614;47.576;7.524;2022-11-09T05:34:35;24.70;54.10
67817;DHT22;54614;47.576;7.524;2022-11-09T05:37:01;24.70;54.20
67817;DHT22;54614;47.576;7.524;2022-11-09T05:39:27;24.70;54.20
67817;DHT22;54614;47.576;7.524;2022-11-09T05:41:52;24.60;54.40
67817;DHT22;54614;47.576;7.524;2022-11-09T05:44:18;24.60;54.40
67817;DHT22;54614;47.576;7.524;2022-11-09T05:46:44;24.60;54.50
67817;DHT22;54614;47.576;7.524;2022-11-09T05:49:10;24.60;54.60
67817;DHT22;54614;47.576;7.524;2022-11-09T05:51:36;24.50;54.70
67817;DHT22;54614;47.576;7.524;2022-11-09T05:54:01;24.50;54.70
67817;DHT22;54614;47.576;7.524;2022-11-09T05:56:27;24.50;54.80
67817;DHT22;54614;47.576;7.524;2022-11-09T05:58:53;24.40;54.90
67817;DHT22;54614;47.576;7.524;2022-11-09T06:01:19;24.50;54.90
67817;DHT22;54614;47.576;7.524;2022-11-09T06:03:45;24.50;54.80
67817;DHT22;54614;47.576;7.524;2022-11-09T06:06:13;24.40;54.90
67817;DHT22;54614;47.576;7.524;2022-11-09T06:08:40;24.40;55.80
67817;DHT22;54614;47.576;7.524;2022-11-09T06:11:08;24.70;54.70
67817;DHT22;54614;47.576;7.524;2022-11-09T06:13:36;24.60;54.80
67817;DHT22;54614;47.576;7.524;2022-11-09T06:16:04;24.50;54.90
67817;DHT22;54614;47.576;7.524;2022-11-09T06:18:31;24.60;55.00
67817;DHT22;54614;47.576;7.524;2022-11-09T06:23:27;24.70;54.10
67817;DHT22;54614;47.576;7.524;2022-11-09T06:26:06;24.70;54.70
67817;DHT22;54614;47.576;7.524;2022-11-09T06:28:35;24.60;54.70
67817;DHT22;54614;47.576;7.524;2022-11-09T06:31:04;24.70;54.80
67817;DHT22;54614;47.576;7.524;2022-11-09T06:33:34;24.70;54.70
67817;DHT22;54614;47.576;7.524;2022-11-09T06:36:01;24.70;54.70
67817;DHT22;54614;47.576;7.524;2022-11-09T06:38:27;24.70;54.60
67817;DHT22;54614;47.576;7.524;2022-11-09T06:40:55;24.70;54.70
67817;DHT22;54614;47.576;7.524;2022-11-09T06:43:23;24.50;57.60
67817;DHT22;54614;47.576;7.524;2022-11-09T06:45:50;24.60;57.70
67817;DHT22;54614;47.576;7.524;2022-11-09T06:48:16;24.70;55.70
67817;DHT22;54614;47.576;7.524;2022-11-09T06:50:43;24.80;55.60
67817;DHT22;54614;47.576;7.524;2022-11-09T06:53:13;24.80;55.30
67817;DHT22;54614;47.576;7.524;2022-11-09T06:55:40;24.90;54.90
67817;DHT22;54614;47.576;7.524;2022-11-09T06:58:12;24.90;54.90
67817;DHT22;54614;47.576;7.524;2022-11-09T07:00:41;24.80;54.90
67817;DHT22;54614;47.576;7.524;2022-11-09T07:03:08;24.80;55.00
67817;DHT22;54614;47.576;7.524;2022-11-09T07:05:38;24.80;54.90
67817;DHT22;54614;47.576;7.524;2022-11-09T07:08:04;24.80;54.80
67817;DHT22;54614;47.576;7.524;2022-11-09T07:10:30;24.80;54.60
67817;DHT22;54614;47.576;7.524;2022-11-09T07:12:57;24.90;54.50
67817;DHT22;54614;47.576;7.524;2022-11-09T07:17:49;24.80;54.50
67817;DHT22;54614;47.576;7.524;2022-11-09T07:20:15;24.90;54.90
67817;DHT22;54614;47.576;7.524;2022-11-09T07:22:41;25.00;54.50
67817;DHT22;54614;47.576;7.524;2022-11-09T07:25:09;24.90;54.80
67817;DHT22;54614;47.576;7.524;2022-11-09T07:27:36;25.00;54.70
67817;DHT22;54614;47.576;7.524;2022-11-09T07:30:02;25.00;54.60
67817;DHT22;54614;47.576;7.524;2022-11-09T07:32:35;25.00;54.60
67817;DHT22;54614;47.576;7.524;2022-11-09T07:35:02;24.90;54.70
67817;DHT22;54614;47.576;7.524;2022-11-09T07:37:30;24.90;54.90
67817;DHT22;54614;47.576;7.524;2022-11-09T07:39:56;24.80;55.00
67817;DHT22;54614;47.576;7.524;2022-11-09T07:42:23;24.80;55.00
67817;DHT22;54614;47.576;7.524;2022-11-09T07:44:50;24.80;54.90
67817;DHT22;54614;47.576;7.524;2022-11-09T07:47:17;24.80;54.80
67817;DHT22;54614;47.576;7.524;2022-11-09T07:49:43;24.80;54.90
67817;DHT22;54614;47.576;7.524;2022-11-09T07:52:09;24.80;54.90
67817;DHT22;54614;47.576;7.524;2022-11-09T07:54:35;24.80;54.80
67817;DHT22;54614;47.576;7.524;2022-11-09T07:57:02;24.80;54.80
67817;DHT22;54614;47.576;7.524;2022-11-09T07:59:28;24.80;54.90
67817;DHT22;54614;47.576;7.524;2022-11-09T08:01:54;24.70;55.00
67817;DHT22;54614;47.576;7.524;2022-11-09T08:04:19;24.70;55.00
67817;DHT22;54614;47.576;7.524;2022-11-09T08:06:45;24.70;55.00
67817;DHT22;54614;47.576;7.524;2022-11-09T08:09:11;24.70;55.00
67817;DHT22;54614;47.576;7.524;2022-11-09T08:11:37;24.60;55.00
67817;DHT22;54614;47.576;7.524;2022-11-09T08:14:03;24.60;55.20
67817;DHT22;54614;47.576;7.524;2022-11-09T08:16:29;24.60;55.20
67817;DHT22;54614;47.576;7.524;2022-11-09T08:18:54;24.70;55.10
67817;DHT22;54614;47.576;7.524;2022-11-09T08:21:20;24.50;57.90
67817;DHT22;54614;47.576;7.524;2022-11-09T08:23:46;24.60;57.10
67817;DHT22;54614;47.576;7.524;2022-11-09T08:26:12;24.70;56.40
67817;DHT22;54614;47.576;7.524;2022-11-09T08:28:38;24.80;55.90
67817;DHT22;54614;47.576;7.524;2022-11-09T08:31:05;24.80;55.70
67817;DHT22;54614;47.576;7.524;2022-11-09T08:33:38;24.80;55.60
67817;DHT22;54614;47.576;7.524;2022-11-09T08:36:12;24.80;55.50
67817;DHT22;54614;47.576;7.524;2022-11-09T08:38:41;24.80;55.40
67817;DHT22;54614;47.576;7.524;2022-11-09T08:41:08;24.80;55.30
67817;DHT22;54614;47.576;7.524;2022-11-09T08:43:35;24.80;55.20
67817;DHT22;54614;47.576;7.524;2022-11-09T08:46:00;24.80;55.10
67817;DHT22;54614;47.576;7.524;2022-11-09T08:48:26;24.80;55.10
67817;DHT22;54614;47.576;7.524;2022-11-09T08:50:54;24.90;55.20
67817;DHT22;54614;47.576;7.524;2022-11-09T08:53:23;24.80;55.20
67817;DHT22;54614;47.576;7.524;2022-11-09T08:55:51;24.80;55.30
67817;DHT22;54614;47.576;7.524;2022-11-09T08:58:17;24.80;55.30
67817;DHT22;54614;47.576;7.524;2022-11-09T09:00:44;24.80;55.30
67817;DHT22;54614;47.576;7.524;2022-11-09T09:03:10;24.80;55.30
67817;DHT22;54614;47.576;7.524;2022-11-09T09:05:37;24.80;55.20
67817;DHT22;54614;47.576;7.524;2022-11-09T09:08:04;24.80;55.20
67817;DHT22;54614;47.576;7.524;2022-11-09T09:10:31;24.80;55.20
67817;DHT22;54614;47.576;7.524;2022-11-09T09:13:00;24.80;55.20
67817;DHT22;54614;47.576;7.524;2022-11-09T09:15:27;24.80;55.20
67817;DHT22;54614;47.576;7.524;2022-11-09T09:17:53;24.80;55.30
67817;DHT22;54614;47.576;7.524;2022-11-09T09:20:18;24.80;55.40
67817;DHT22;54614;47.576;7.524;2022-11-09T09:22:45;24.80;55.50
67817;DHT22;54614;47.576;7.524;2022-11-09T09:25:11;24.70;55.50
67817;DHT22;54614;47.576;7.524;2022-11-09T09:27:37;24.80;55.40
67817;DHT22;54614;47.576;7.524;2022-11-09T09:30:03;24.80;55.30
67817;DHT22;54614;47.576;7.524;2022-11-09T09:32:30;24.80;55.20
67817;DHT22;54614;47.576;7.524;2022-11-09T09:34:56;24.80;55.20
67817;DHT22;54614;47.576;7.524;2022-11-09T09:37:21;24.80;55.10
67817;DHT22;54614;47.576;7.524;2022-11-09T09:39:47;24.80;55.10
67817;DHT22;54614;47.576;7.524;2022-11-09T09:42:16;24.80;55.10
67817;DHT22;54614;47.576;7.524;2022-11-09T09:44:53;24.80;55.10
67817;DHT22;54614;47.576;7.524;2022-11-09T09:50:51;24.90;55.40
67817;DHT22;54614;47.576;7.524;2022-11-09T09:56:24;25.10;54.50
67817;DHT22;54614;47.576;7.524;2022-11-09T09:59:12;25.30;54.30
67817;DHT22;54614;47.576;7.524;2022-11-09T10:47:21;22.60;57.60
67817;DHT22;54614;47.576;7.524;2022-11-09T10:52:42;23.60;56.80
67817;DHT22;54614;47.576;7.524;2022-11-09T10:55:16;23.80;56.60
67817;DHT22;54614;47.576;7.524;2022-11-09T11:01:02;24.10;56.20
67817;DHT22;54614;47.576;7.524;2022-11-09T11:03:31;24.20;56.00
67817;DHT22;54614;47.576;7.524;2022-11-09T11:08:50;24.40;56.00
67817;DHT22;54614;47.576;7.524;2022-11-09T11:11:26;24.40;56.00
67817;DHT22;54614;47.576;7.524;2022-11-09T11:14:32;24.40;55.80
67817;DHT22;54614;47.576;7.524;2022-11-09T11:17:00;24.50;55.80
67817;DHT22;54614;47.576;7.524;2022-11-09T11:19:36;24.60;55.70
67817;DHT22;54614;47.576;7.524;2022-11-09T11:22:17;24.60;55.70
67817;DHT22;54614;47.576;7.524;2022-11-09T11:27:47;24.70;55.80
67817;DHT22;54614;47.576;7.524;2022-11-09T11:30:24;24.70;55.80
67817;DHT22;54614;47.576;7.524;2022-11-09T11:32:56;24.70;55.90
67817;DHT22;54614;47.576;7.524;2022-11-09T11:44:30;24.70;55.90
67817;DHT22;54614;47.576;7.524;2022-11-09T11:47:25;24.70;55.90
67817;DHT22;54614;47.576;7.524;2022-11-09T11:50:20;24.70;56.10
67817;DHT22;54614;47.576;7.524;2022-11-09T12:02:02;24.80;56.10
67817;DHT22;54614;47.576;7.524;2022-11-09T12:05:23;24.80;55.70
67817;DHT22;54614;47.576;7.524;2022-11-09T12:10:50;24.90;55.60
67817;DHT22;54614;47.576;7.524;2022-11-09T12:13:52;24.90;55.50
67817;DHT22;54614;47.576;7.524;2022-11-09T12:16:37;24.90;55.50
67817;DHT22;54614;47.576;7.524;2022-11-09T12:22:32;25.00;55.20
67817;DHT22;54614;47.576;7.524;2022-11-09T12:25:15;25.00;55.10
67817;DHT22;54614;47.576;7.524;2022-11-09T12:33:59;25.00;55.00
67817;DHT22;54614;47.576;7.524;2022-11-09T12:36:49;25.10;55.00
67817;DHT22;54614;47.576;7.524;2022-11-09T12:42:08;25.10;55.00
67817;DHT22;54614;47.576;7.524;2022-11-09T12:45:23;25.10;54.90
67817;DHT22;54614;47.576;7.524;2022-11-09T12:48:24;25.10;55.00
67817;DHT22;54614;47.576;7.524;2022-11-09T12:50:52;25.20;54.80
67817;DHT22;54614;47.576;7.524;2022-11-09T12:53:21;25.20;54.80
67817;DHT22;54614;47.576;7.524;2022-11-09T12:58:31;25.20;54.70
67817;DHT22;54614;47.576;7.524;2022-11-09T13:01:00;25.20;54.70
67817;DHT22;54614;47.576;7.524;2022-11-09T13:03:33;25.20;54.80
67817;DHT22;54614;47.576;7.524;2022-11-09T13:06:16;25.20;54.70
67817;DHT22;54614;47.576;7.524;2022-11-09T13:11:36;25.10;54.80
67817;DHT22;54614;47.576;7.524;2022-11-09T13:24:54;25.10;54.80
67817;DHT22;54614;47.576;7.524;2022-11-09T13:27:45;25.10;54.80
67817;DHT22;54614;47.576;7.524;2022-11-09T13:40:45;25.10;54.80
67817;DHT22;54614;47.576;7.524;2022-11-09T13:46:04;25.10;54.90
67817;DHT22;54614;47.576;7.524;2022-11-09T13:48:40;25.10;54.90
67817;DHT22;54614;47.576;7.524;2022-11-09T13:51:11;25.10;54.80
67817;DHT22;54614;47.576;7.524;2022-11-09T13:54:41;25.10;54.90
67817;DHT22;54614;47.576;7.524;2022-11-09T13:56:53;25.20;54.80
67817;DHT22;54614;47.576;7.524;2022-11-09T13:59:27;25.10;54.90
67817;DHT22;54614;47.576;7.524;2022-11-09T14:01:58;25.10;55.00
67817;DHT22;54614;47.576;7.524;2022-11-09T14:04:34;25.00;55.00
67817;DHT22;54614;47.576;7.524;2022-11-09T14:07:21;25.00;55.00
67817;DHT22;54614;47.576;7.524;2022-11-09T14:22:01;25.00;55.10
67817;DHT22;54614;47.576;7.524;2022-11-09T14:24:29;25.10;55.00
67817;DHT22;54614;47.576;7.524;2022-11-09T14:27:01;25.00;54.90
67817;DHT22;54614;47.576;7.524;2022-11-09T14:29:35;25.00;54.90
67817;DHT22;54614;47.576;7.524;2022-11-09T14:34:51;25.00;54.90
67817;DHT22;54614;47.576;7.524;2022-11-09T14:37:18;25.00;54.80
67817;DHT22;54614;47.576;7.524;2022-11-09T14:39:49;25.00;54.70
67817;DHT22;54614;47.576;7.524;2022-11-09T14:42:19;25.10;54.80
67817;DHT22;54614;47.576;7.524;2022-11-09T14:44:48;25.00;54.90
67817;DHT22;54614;47.576;7.524;2022-11-09T14:47:17;25.00;55.00
67817;DHT22;54614;47.576;7.524;2022-11-09T14:49:47;25.00;55.00
67817;DHT22;54614;47.576;7.524;2022-11-09T14:52:16;25.00;54.90
67817;DHT22;54614;47.576;7.524;2022-11-09T14:54:46;25.00;54.90
67817;DHT22;54614;47.576;7.524;2022-11-09T14:57:15;25.00;54.80
67817;DHT22;54614;47.576;7.524;2022-11-09T14:59:43;25.00;54.80
67817;DHT22;54614;47.576;7.524;2022-11-09T15:02:13;25.00;54.80
67817;DHT22;54614;47.576;7.524;2022-11-09T15:05:02;25.00;54.70
67817;DHT22;54614;47.576;7.524;2022-11-09T15:07:32;25.10;54.60
67817;DHT22;54614;47.576;7.524;2022-11-09T15:10:04;25.10;54.80
67817;DHT22;54614;47.576;7.524;2022-11-09T15:12:32;25.00;54.90
67817;DHT22;54614;47.576;7.524;2022-11-09T15:15:02;25.00;55.00
67817;DHT22;54614;47.576;7.524;2022-11-09T15:17:36;25.00;55.70
67817;DHT22;54614;47.576;7.524;2022-11-09T15:25:33;24.80;55.30
67817;DHT22;54614;47.576;7.524;2022-11-09T15:30:41;25.00;55.20
67817;DHT22;54614;47.576;7.524;2022-11-09T15:41:39;24.90;55.20
67817;DHT22;54614;47.576;7.524;2022-11-09T15:44:05;24.90;55.00
67817;DHT22;54614;47.576;7.524;2022-11-09T15:46:36;24.90;55.10
67817;DHT22;54614;47.576;7.524;2022-11-09T15:51:49;24.80;55.10
67817;DHT22;54614;47.576;7.524;2022-11-09T15:54:16;24.90;55.20
67817;DHT22;54614;47.576;7.524;2022-11-09T15:56:43;24.90;55.10
67817;DHT22;54614;47.576;7.524;2022-11-09T15:59:19;24.90;55.10
67817;DHT22;54614;47.576;7.524;2022-11-09T16:01:48;24.90;55.10
67817;DHT22;54614;47.576;7.524;2022-11-09T16:04:14;24.80;55.10
67817;DHT22;54614;47.576;7.524;2022-11-09T16:06:40;24.90;55.10
67817;DHT22;54614;47.576;7.524;2022-11-09T16:09:06;24.90;55.00
67817;DHT22;54614;47.576;7.524;2022-11-09T16:11:33;24.90;55.00
67817;DHT22;54614;47.576;7.524;2022-11-09T16:13:59;24.90;55.10
67817;DHT22;54614;47.576;7.524;2022-11-09T16:16:27;24.80;55.20
67817;DHT22;54614;47.576;7.524;2022-11-09T16:18:55;24.90;55.20
67817;DHT22;54614;47.576;7.524;2022-11-09T16:21:24;24.80;55.10
67817;DHT22;54614;47.576;7.524;2022-11-09T16:23:51;24.90;55.10
67817;DHT22;54614;47.576;7.524;2022-11-09T16:26:19;24.90;55.10
67817;DHT22;54614;47.576;7.524;2022-11-09T16:28:45;24.90;55.10
67817;DHT22;54614;47.576;7.524;2022-11-09T16:31:11;24.90;55.20
67817;DHT22;54614;47.576;7.524;2022-11-09T16:33:38;24.80;55.20
67817;DHT22;54614;47.576;7.524;2022-11-09T16:36:08;24.80;55.10
67817;DHT22;54614;47.576;7.524;2022-11-09T16:38:47;24.90;55.20
67817;DHT22;54614;47.576;7.524;2022-11-09T16:41:16;24.80;55.30
67817;DHT22;54614;47.576;7.524;2022-11-09T16:43:45;24.80;55.30
67817;DHT22;54614;47.576;7.524;2022-11-09T16:46:22;24.80;55.30
67817;DHT22;54614;47.576;7.524;2022-11-09T16:48:52;24.80;55.80
67817;DHT22;54614;47.576;7.524;2022-11-09T16:51:19;24.80;55.20
67817;DHT22;54614;47.576;7.524;2022-11-09T16:53:45;24.80;55.30
67817;DHT22;54614;47.576;7.524;2022-11-09T16:56:11;24.70;55.50
67817;DHT22;54614;47.576;7.524;2022-11-09T16:58:38;24.80;55.60
67817;DHT22;54614;47.576;7.524;2022-11-09T17:01:04;24.80;55.50
67817;DHT22;54614;47.576;7.524;2022-11-09T17:03:30;24.70;55.70
67817;DHT22;54614;47.576;7.524;2022-11-09T17:05:59;24.60;55.90
67817;DHT22;54614;47.576;7.524;2022-11-09T17:08:29;24.60;56.00
67817;DHT22;54614;47.576;7.524;2022-11-09T17:10:54;24.60;56.20
67817;DHT22;54614;47.576;7.524;2022-11-09T17:13:20;24.50;56.30
67817;DHT22;54614;47.576;7.524;2022-11-09T17:15:48;24.50;56.40
67817;DHT22;54614;47.576;7.524;2022-11-09T17:18:16;24.50;56.50
67817;DHT22;54614;47.576;7.524;2022-11-09T17:20:47;24.50;56.70
67817;DHT22;54614;47.576;7.524;2022-11-09T17:23:17;24.40;56.60
67817;DHT22;54614;47.576;7.524;2022-11-09T17:25:54;24.50;56.60
67817;DHT22;54614;47.576;7.524;2022-11-09T17:28:22;24.50;56.50
67817;DHT22;54614;47.576;7.524;2022-11-09T17:30:48;24.50;56.50
67817;DHT22;54614;47.576;7.524;2022-11-09T17:33:13;24.50;56.60
67817;DHT22;54614;47.576;7.524;2022-11-09T17:35:39;24.50;56.60
67817;DHT22;54614;47.576;7.524;2022-11-09T17:38:05;24.40;57.50
67817;DHT22;54614;47.576;7.524;2022-11-09T17:40:31;24.40;57.00
67817;DHT22;54614;47.576;7.524;2022-11-09T17:42:57;24.40;57.20
67817;DHT22;54614;47.576;7.524;2022-11-09T17:45:24;24.40;57.30
67817;DHT22;54614;47.576;7.524;2022-11-09T17:47:51;24.50;57.20
67817;DHT22;54614;47.576;7.524;2022-11-09T17:50:16;24.60;57.20
67817;DHT22;54614;47.576;7.524;2022-11-09T17:52:46;24.60;57.30
67817;DHT22;54614;47.576;7.524;2022-11-09T17:55:13;24.70;57.10
67817;DHT22;54614;47.576;7.524;2022-11-09T17:57:39;24.70;57.50
67817;DHT22;54614;47.576;7.524;2022-11-09T18:00:05;24.70;57.50
67817;DHT22;54614;47.576;7.524;2022-11-09T18:02:32;24.80;57.30
67817;DHT22;54614;47.576;7.524;2022-11-09T18:04:59;24.80;57.90
67817;DHT22;54614;47.576;7.524;2022-11-09T18:07:25;24.80;57.90
67817;DHT22;54614;47.576;7.524;2022-11-09T18:09:52;24.90;57.40
67817;DHT22;54614;47.576;7.524;2022-11-09T18:12:17;24.90;57.20
67817;DHT22;54614;47.576;7.524;2022-11-09T18:14:43;25.00;57.30
67817;DHT22;54614;47.576;7.524;2022-11-09T18:17:09;24.90;57.30
67817;DHT22;54614;47.576;7.524;2022-11-09T18:19:35;24.80;57.60
67817;DHT22;54614;47.576;7.524;2022-11-09T18:22:01;24.90;57.80
67817;DHT22;54614;47.576;7.524;2022-11-09T18:24:26;24.80;57.80
67817;DHT22;54614;47.576;7.524;2022-11-09T18:26:53;24.90;59.40
67817;DHT22;54614;47.576;7.524;2022-11-09T18:29:18;24.90;59.70
67817;DHT22;54614;47.576;7.524;2022-11-09T18:31:44;24.90;59.00